Time;durP1;ratioP1;P1;durP2;ratioP2;P2;SDS_P1;SDS_P2;PMS_P1;PMS_P2;Temp;Humidity;BMP_temperature;BMP_pressure;BME280_temperature;BME280_humidity;BME280_pressure;Samples;Min_cycle;Max_cycle;Signal;HPM_P1;HPM_P2
2024/03/17 00:00:05;;;;;;;;;9.33;8.00;;;;;;;;5072590;27;45527;-51
2024/03/17 00:02:30;;;;;;;;;7.33;7.00;;;;;;;;5087141;27;45398;-52
2024/03/17 00:04:55;;;;;;;;;11.67;8.67;;;;;;;;5078686;27;45432;-51
2024/03/17 00:07:20;;;;;;;;;7.00;7.00;;;;;;;;5086649;27;45476;-51
2024/03/17 00:09:46;;;;;;;;;4.33;0.67;;;;;;;;5093626;27;45666;-50
2024/03/17 00:12:12;;;;;;;;;9.67;9.67;;;;;;;;5079677;27;45397;-51
2024/03/17 00:14:38;;;;;;;;;8.67;8.67;;;;;;;;5081752;27;45359;-51
2024/03/17 00:17:04;;;;;;;;;11.33;8.33;;;;;;;;5073950;27;47461;-49
2024/03/17 00:19:29;;;;;;;;;9.33;9.33;;;;;;;;5077567;27;45676;-52
2024/03/17 00:21:54;;;;;;;;;9.00;8.00;;;;;;;;5084545;27;45590;-51
2024/03/17 00:24:20;;;;;;;;;7.67;7.67;;;;;;;;5084319;27;45925;-49
2024/03/17 00:26:45;;;;;;;;;15.00;10.00;;;;;;;;5084470;27;45474;-51
2024/03/17 00:29:11;;;;;;;;;10.67;10.67;;;;;;;;5084794;27;45408;-49
2024/03/17 00:31:37;;;;;;;;;12.00;11.00;;;;;;;;5083406;27;45264;-49
2024/03/17 00:34:02;;;;;;;;;12.33;11.33;;;;;;;;5084164;27;46087;-52
2024/03/17 00:36:27;;;;;;;;;18.00;13.33;;;;;;;;5083518;27;46217;-52
2024/03/17 00:38:52;;;;;;;;;13.33;12.33;;;;;;;;5084540;27;45272;-49
2024/03/17 00:41:19;;;;;;;;;16.67;14.00;;;;;;;;5082986;27;45471;-50
2024/03/17 00:43:44;;;;;;;;;14.00;12.00;;;;;;;;5081332;28;45456;-52
2024/03/17 00:46:09;;;;;;;;;14.67;12.33;;;;;;;;5083589;27;46133;-51
2024/03/17 00:48:34;;;;;;;;;14.33;13.00;;;;;;;;5085178;27;45460;-50
2024/03/17 00:50:59;;;;;;;;;10.00;7.67;;;;;;;;5083974;27;45419;-49
2024/03/17 00:53:25;;;;;;;;;15.00;13.33;;;;;;;;5082540;27;45555;-51
2024/03/17 00:55:51;;;;;;;;;17.33;12.67;;;;;;;;5081436;27;45404;-51
2024/03/17 00:58:16;;;;;;;;;15.00;13.67;;;;;;;;5082916;27;45322;-50
2024/03/17 01:00:41;;;;;;;;;12.67;12.67;;;;;;;;5083564;27;45356;-51
2024/03/17 01:03:07;;;;;;;;;16.00;14.00;;;;;;;;5085405;27;45590;-49
2024/03/17 01:05:32;;;;;;;;;17.00;15.00;;;;;;;;5083869;27;45611;-51
2024/03/17 01:07:57;;;;;;;;;17.00;13.33;;;;;;;;5086219;27;45416;-51
2024/03/17 01:10:22;;;;;;;;;18.67;14.33;;;;;;;;5082512;27;45480;-50
2024/03/17 01:12:47;;;;;;;;;13.67;11.67;;;;;;;;5086181;27;45373;-51
2024/03/17 01:15:13;;;;;;;;;14.67;13.67;;;;;;;;5082031;27;45738;-52
2024/03/17 01:17:38;;;;;;;;;14.33;14.33;;;;;;;;5082413;27;45315;-49
2024/03/17 01:20:03;;;;;;;;;14.00;14.00;;;;;;;;5082051;27;45392;-52
2024/03/17 01:22:28;;;;;;;;;14.33;13.00;;;;;;;;5084364;27;45442;-49
2024/03/17 01:24:53;;;;;;;;;17.33;14.33;;;;;;;;5082413;27;45592;-51
2024/03/17 01:27:19;;;;;;;;;12.67;12.00;;;;;;;;5084451;27;45395;-52
2024/03/17 01:29:44;;;;;;;;;13.67;12.00;;;;;;;;5082426;27;45554;-49
2024/03/17 01:32:10;;;;;;;;;15.67;13.00;;;;;;;;5080827;27;45693;-51
2024/03/17 01:34:35;;;;;;;;;11.67;10.67;;;;;;;;5079764;27;47427;-52
2024/03/17 01:37:01;;;;;;;;;16.00;11.00;;;;;;;;5083029;27;45811;-50
2024/03/17 01:39:26;;;;;;;;;14.00;12.67;;;;;;;;5082862;27;45617;-51
2024/03/17 01:41:52;;;;;;;;;16.00;14.00;;;;;;;;5086554;27;45197;-49
2024/03/17 01:44:24;;;;;;;;;12.67;9.33;;;;;;;;5077995;27;46276;-52
2024/03/17 01:46:50;;;;;;;;;12.33;11.00;;;;;;;;5083449;27;45294;-51
2024/03/17 01:49:16;;;;;;;;;13.00;10.00;;;;;;;;5083473;27;45415;-52
2024/03/17 01:51:41;;;;;;;;;13.67;13.67;;;;;;;;5087330;27;45590;-51
2024/03/17 01:54:06;;;;;;;;;12.00;11.67;;;;;;;;5083083;27;45815;-52
2024/03/17 01:56:32;;;;;;;;;13.00;12.00;;;;;;;;5080149;27;45254;-52
2024/03/17 01:58:57;;;;;;;;;14.67;13.00;;;;;;;;5079665;27;45204;-52
2024/03/17 02:01:23;;;;;;;;;17.67;10.67;;;;;;;;5081267;27;45616;-52
2024/03/17 02:03:48;;;;;;;;;12.67;10.67;;;;;;;;5082275;27;45815;-51
2024/03/17 02:06:13;;;;;;;;;11.67;11.67;;;;;;;;5087615;27;45642;-50
2024/03/17 02:08:51;;;;;;;;;13.67;11.33;;;;;;;;5084645;27;45556;-51
2024/03/17 02:11:43;;;;;;;;;10.00;10.00;;;;;;;;5083697;27;45448;-50
2024/03/17 02:14:08;;;;;;;;;10.33;10.33;;;;;;;;5083609;27;46228;-50
2024/03/17 02:16:33;;;;;;;;;11.00;10.67;;;;;;;;5084440;27;45208;-51
2024/03/17 02:18:59;;;;;;;;;10.67;9.00;;;;;;;;5078925;27;45516;-49
2024/03/17 02:21:27;;;;;;;;;14.00;12.00;;;;;;;;5080813;27;45414;-53
2024/03/17 02:23:52;;;;;;;;;12.00;11.00;;;;;;;;5080497;27;46635;-50
2024/03/17 02:26:18;;;;;;;;;11.00;10.00;;;;;;;;5080477;27;45400;-52
2024/03/17 02:28:44;;;;;;;;;10.33;9.00;;;;;;;;5077347;27;45321;-53
2024/03/17 02:31:10;;;;;;;;;9.33;9.33;;;;;;;;5079048;27;45369;-51
2024/03/17 02:33:36;;;;;;;;;8.00;8.00;;;;;;;;5081197;27;45568;-52
2024/03/17 02:36:03;;;;;;;;;9.00;9.00;;;;;;;;5080453;27;45433;-50
2024/03/17 02:41:12;;;;;;;;;10.67;10.67;;;;;;;;5080097;27;45595;-52
2024/03/17 02:43:37;;;;;;;;;10.00;10.00;;;;;;;;5081059;27;45328;-49
2024/03/17 02:46:05;;;;;;;;;9.67;9.67;;;;;;;;5077134;27;45278;-51
2024/03/17 02:48:31;;;;;;;;;8.67;8.67;;;;;;;;5077308;27;45532;-51
2024/03/17 02:50:56;;;;;;;;;10.00;9.00;;;;;;;;5077956;27;45349;-52
2024/03/17 02:53:21;;;;;;;;;9.00;9.00;;;;;;;;5082305;27;47248;-52
2024/03/17 02:55:46;;;;;;;;;10.00;8.67;;;;;;;;5081074;27;45455;-52
2024/03/17 02:58:12;;;;;;;;;10.00;8.33;;;;;;;;5080717;27;45456;-50
2024/03/17 03:00:37;;;;;;;;;13.33;10.00;;;;;;;;5081440;27;45662;-51
2024/03/17 03:03:02;;;;;;;;;12.00;11.00;;;;;;;;5083106;27;46452;-50
2024/03/17 03:05:27;;;;;;;;;11.33;7.33;;;;;;;;5076201;27;45291;-49
2024/03/17 03:07:52;;;;;;;;;11.00;9.67;;;;;;;;5083346;27;45317;-51
2024/03/17 03:10:18;;;;;;;;;13.00;11.33;;;;;;;;5081768;27;45438;-49
2024/03/17 03:12:43;;;;;;;;;12.00;9.00;;;;;;;;5082411;27;46454;-48
2024/03/17 03:15:08;;;;;;;;;12.33;10.33;;;;;;;;5077726;27;46559;-49
2024/03/17 03:17:33;;;;;;;;;10.00;10.00;;;;;;;;5082503;27;45495;-50
2024/03/17 03:19:58;;;;;;;;;7.00;6.00;;;;;;;;5078588;27;45494;-49
2024/03/17 03:22:24;;;;;;;;;10.67;9.00;;;;;;;;5080301;27;46500;-51
2024/03/17 03:24:51;;;;;;;;;13.00;9.33;;;;;;;;5078030;27;45409;-52
2024/03/17 03:27:17;;;;;;;;;10.00;10.00;;;;;;;;5080351;27;45287;-50
2024/03/17 03:29:42;;;;;;;;;11.67;11.67;;;;;;;;5075755;27;45469;-49
2024/03/17 03:32:07;;;;;;;;;11.67;10.33;;;;;;;;5080887;27;46010;-50
2024/03/17 03:34:33;;;;;;;;;10.33;10.00;;;;;;;;5081467;27;45224;-50
2024/03/17 03:36:58;;;;;;;;;10.33;9.00;;;;;;;;5084190;27;45408;-50
2024/03/17 03:39:26;;;;;;;;;13.67;10.00;;;;;;;;5079844;27;45650;-51
2024/03/17 03:41:52;;;;;;;;;10.00;10.00;;;;;;;;5081494;27;47143;-55
2024/03/17 03:44:18;;;;;;;;;10.33;9.67;;;;;;;;5079769;27;45295;-49
2024/03/17 03:46:44;;;;;;;;;10.67;9.00;;;;;;;;5079687;27;45692;-49
2024/03/17 03:49:09;;;;;;;;;12.00;10.00;;;;;;;;5079324;27;45728;-50
2024/03/17 03:51:35;;;;;;;;;15.33;9.33;;;;;;;;5081936;27;46939;-50
2024/03/17 03:54:00;;;;;;;;;10.67;9.00;;;;;;;;5082141;27;45465;-50
2024/03/17 03:56:25;;;;;;;;;14.33;10.00;;;;;;;;5086275;27;45377;-49
2024/03/17 03:58:51;;;;;;;;;10.67;9.67;;;;;;;;5082188;27;45203;-49
2024/03/17 04:01:21;;;;;;;;;8.67;7.00;;;;;;;;5083249;27;46644;-52
2024/03/17 04:03:46;;;;;;;;;8.33;8.00;;;;;;;;5082876;27;45747;-49
2024/03/17 04:06:13;;;;;;;;;10.00;8.33;;;;;;;;5087146;27;45279;-51
2024/03/17 04:08:41;;;;;;;;;9.67;8.67;;;;;;;;5085116;27;45319;-48
2024/03/17 04:11:07;;;;;;;;;9.33;8.33;;;;;;;;5079981;27;46948;-53
2024/03/17 04:13:35;;;;;;;;;9.67;9.67;;;;;;;;5085445;27;45244;-51
2024/03/17 04:16:03;;;;;;;;;10.33;9.00;;;;;;;;5084580;27;45778;-51
2024/03/17 04:18:31;;;;;;;;;10.00;10.00;;;;;;;;5083184;27;45495;-51
2024/03/17 04:20:57;;;;;;;;;12.33;10.00;;;;;;;;5084928;27;46313;-49
2024/03/17 04:23:22;;;;;;;;;10.00;10.00;;;;;;;;5082563;27;45299;-51
2024/03/17 04:25:48;;;;;;;;;11.67;10.00;;;;;;;;5083331;27;45241;-51
2024/03/17 04:28:14;;;;;;;;;10.33;10.33;;;;;;;;5081114;27;45301;-53
2024/03/17 04:30:39;;;;;;;;;11.33;9.67;;;;;;;;5082252;27;47841;-48
2024/03/17 04:33:06;;;;;;;;;11.33;9.33;;;;;;;;5080527;27;45463;-48
2024/03/17 04:35:31;;;;;;;;;14.67;12.67;;;;;;;;5086171;27;45444;-51
2024/03/17 04:37:57;;;;;;;;;11.00;11.00;;;;;;;;5084238;27;45308;-48
2024/03/17 04:40:22;;;;;;;;;12.67;12.33;;;;;;;;5086813;27;45993;-51
2024/03/17 04:42:47;;;;;;;;;15.67;11.00;;;;;;;;5084095;27;45410;-54
2024/03/17 04:45:13;;;;;;;;;11.00;10.00;;;;;;;;5084257;27;45377;-49
2024/03/17 04:47:38;;;;;;;;;12.00;9.33;;;;;;;;5083098;27;45417;-48
2024/03/17 04:50:04;;;;;;;;;13.00;10.00;;;;;;;;5081612;27;45353;-49
2024/03/17 04:52:29;;;;;;;;;7.67;6.67;;;;;;;;5081810;27;45354;-51
2024/03/17 04:54:54;;;;;;;;;8.33;7.00;;;;;;;;5088811;27;45576;-52
2024/03/17 04:57:19;;;;;;;;;9.00;8.00;;;;;;;;5083300;27;45460;-51
2024/03/17 04:59:44;;;;;;;;;8.00;7.00;;;;;;;;5088036;27;45416;-51
2024/03/17 05:02:10;;;;;;;;;6.00;6.00;;;;;;;;5078810;27;45334;-49
2024/03/17 05:04:35;;;;;;;;;9.33;7.00;;;;;;;;5088616;27;45640;-49
2024/03/17 05:07:00;;;;;;;;;7.00;6.00;;;;;;;;5085667;27;45378;-52
2024/03/17 05:09:25;;;;;;;;;4.67;4.33;;;;;;;;5086939;27;46242;-50
2024/03/17 05:11:53;;;;;;;;;4.33;4.33;;;;;;;;5081868;27;45370;-51
2024/03/17 05:14:22;;;;;;;;;4.00;4.00;;;;;;;;5080806;27;45292;-52
2024/03/17 05:16:50;;;;;;;;;9.00;6.67;;;;;;;;5085558;27;45382;-50
2024/03/17 05:19:17;;;;;;;;;6.00;6.00;;;;;;;;5080754;27;47016;-52
2024/03/17 05:21:42;;;;;;;;;5.33;5.00;;;;;;;;5081170;27;45337;-52
2024/03/17 05:24:07;;;;;;;;;7.33;5.33;;;;;;;;5083720;27;45313;-50
2024/03/17 05:26:32;;;;;;;;;6.00;5.00;;;;;;;;5082385;27;45382;-50
2024/03/17 05:28:58;;;;;;;;;6.00;5.00;;;;;;;;5080140;27;45638;-51
2024/03/17 05:31:23;;;;;;;;;6.67;5.00;;;;;;;;5082294;27;45241;-50
2024/03/17 05:33:48;;;;;;;;;7.00;7.00;;;;;;;;5084407;27;45503;-48
2024/03/17 05:36:14;;;;;;;;;6.67;4.67;;;;;;;;5082465;27;45444;-51
2024/03/17 05:38:39;;;;;;;;;5.33;5.00;;;;;;;;5083770;27;46010;-51
2024/03/17 05:41:08;;;;;;;;;5.67;5.67;;;;;;;;5078960;27;45436;-51
2024/03/17 05:43:37;;;;;;;;;7.67;7.00;;;;;;;;5080202;27;45349;-50
2024/03/17 05:46:06;;;;;;;;;9.00;7.00;;;;;;;;5076238;27;45156;-51
2024/03/17 05:48:31;;;;;;;;;6.67;5.33;;;;;;;;5074821;27;46384;-50
2024/03/17 05:50:56;;;;;;;;;13.00;10.00;;;;;;;;5081868;27;45478;-52
2024/03/17 05:53:23;;;;;;;;;11.00;7.00;;;;;;;;5084489;27;45373;-52
2024/03/17 05:55:49;;;;;;;;;9.33;7.33;;;;;;;;5081588;27;45461;-50
2024/03/17 05:58:14;;;;;;;;;7.33;6.00;;;;;;;;5079291;27;45214;-50
2024/03/17 06:00:39;;;;;;;;;2.00;2.00;;;;;;;;5082917;27;45199;-51
2024/03/17 06:03:05;;;;;;;;;8.00;6.00;;;;;;;;5084165;27;45472;-49
2024/03/17 06:05:38;;;;;;;;;5.67;5.67;;;;;;;;5077816;27;45452;-51
2024/03/17 06:08:04;;;;;;;;;8.33;6.67;;;;;;;;5082062;27;46144;-52
2024/03/17 06:10:29;;;;;;;;;10.67;7.00;;;;;;;;5081185;27;45471;-50
2024/03/17 06:12:56;;;;;;;;;9.67;7.00;;;;;;;;5078422;27;45365;-53
2024/03/17 06:15:23;;;;;;;;;6.67;6.00;;;;;;;;5081628;27;45980;-50
2024/03/17 06:17:48;;;;;;;;;9.00;8.67;;;;;;;;5078384;27;46176;-52
2024/03/17 06:20:13;;;;;;;;;6.33;6.33;;;;;;;;5080857;27;45207;-49
2024/03/17 06:22:39;;;;;;;;;8.33;7.00;;;;;;;;5088524;27;45607;-52
2024/03/17 06:25:04;;;;;;;;;9.33;8.00;;;;;;;;5084123;27;45494;-51
2024/03/17 06:27:30;;;;;;;;;7.33;7.33;;;;;;;;5086671;27;46214;-52
2024/03/17 06:29:56;;;;;;;;;9.00;5.00;;;;;;;;5085562;27;45473;-51
2024/03/17 06:32:21;;;;;;;;;11.00;9.00;;;;;;;;5087056;27;45543;-50
2024/03/17 06:34:46;;;;;;;;;11.00;7.67;;;;;;;;5082325;27;45440;-49
2024/03/17 06:37:11;;;;;;;;;8.00;7.00;;;;;;;;5084183;27;45983;-52
2024/03/17 06:39:37;;;;;;;;;8.00;6.67;;;;;;;;5077831;27;45373;-50
2024/03/17 06:42:03;;;;;;;;;12.67;9.00;;;;;;;;5077276;27;45419;-52
2024/03/17 06:44:30;;;;;;;;;6.67;6.67;;;;;;;;5081155;27;45477;-52
2024/03/17 06:46:55;;;;;;;;;8.00;8.00;;;;;;;;5080601;27;46416;-49
2024/03/17 06:49:20;;;;;;;;;8.67;6.33;;;;;;;;5084370;27;45313;-52
2024/03/17 06:51:45;;;;;;;;;7.67;7.67;;;;;;;;5082414;27;45345;-55
2024/03/17 06:54:11;;;;;;;;;5.00;2.33;;;;;;;;5080832;27;45140;-50
2024/03/17 06:56:37;;;;;;;;;12.00;8.00;;;;;;;;5081923;27;46289;-50
2024/03/17 06:59:03;;;;;;;;;4.67;4.67;;;;;;;;5077634;27;45368;-52
2024/03/17 07:01:28;;;;;;;;;7.00;7.00;;;;;;;;5078773;27;45218;-49
2024/03/17 07:03:54;;;;;;;;;8.33;7.33;;;;;;;;5082204;27;45195;-48
2024/03/17 07:06:19;;;;;;;;;11.00;7.00;;;;;;;;5084559;27;46168;-50
2024/03/17 07:08:44;;;;;;;;;8.67;7.33;;;;;;;;5082153;27;45374;-51
2024/03/17 07:11:09;;;;;;;;;8.67;8.00;;;;;;;;5089903;27;46697;-52
2024/03/17 07:13:39;;;;;;;;;2.33;1.00;;;;;;;;5079814;27;45303;-52
2024/03/17 07:16:07;;;;;;;;;10.00;9.00;;;;;;;;5081621;27;45560;-50
2024/03/17 07:18:33;;;;;;;;;10.33;9.00;;;;;;;;5078816;27;45409;-50
2024/03/17 07:21:04;;;;;;;;;8.67;7.00;;;;;;;;5078228;27;45533;-52
2024/03/17 07:23:30;;;;;;;;;8.00;7.00;;;;;;;;5075933;27;45449;-53
2024/03/17 07:25:56;;;;;;;;;9.00;7.33;;;;;;;;5086146;27;45329;-51
2024/03/17 07:28:22;;;;;;;;;6.67;6.67;;;;;;;;5078689;27;45831;-52
2024/03/17 07:30:50;;;;;;;;;10.67;7.67;;;;;;;;5076579;28;45290;-53
2024/03/17 07:33:15;;;;;;;;;9.33;8.33;;;;;;;;5078069;27;45635;-52
2024/03/17 07:35:56;;;;;;;;;8.33;8.33;;;;;;;;5079098;27;45503;-52
2024/03/17 07:38:22;;;;;;;;;9.00;9.00;;;;;;;;5082931;27;45350;-54
2024/03/17 07:40:57;;;;;;;;;10.67;9.67;;;;;;;;5069972;27;261713;-52
2024/03/17 07:43:23;;;;;;;;;11.33;11.33;;;;;;;;5083106;27;45655;-52
2024/03/17 07:45:56;;;;;;;;;14.67;10.00;;;;;;;;5076201;27;46319;-51
2024/03/17 07:48:23;;;;;;;;;14.67;9.00;;;;;;;;5083626;27;45388;-51
2024/03/17 07:50:53;;;;;;;;;9.67;8.67;;;;;;;;5077691;27;45262;-52
2024/03/17 07:53:19;;;;;;;;;12.67;11.33;;;;;;;;5076840;27;45554;-49
2024/03/17 07:55:44;;;;;;;;;13.00;11.00;;;;;;;;5070852;27;46195;-52
2024/03/17 07:58:09;;;;;;;;;10.67;9.00;;;;;;;;5070017;27;45345;-51
2024/03/17 08:00:34;;;;;;;;;14.33;9.00;;;;;;;;5077208;27;45473;-50
2024/03/17 08:02:59;;;;;;;;;10.00;10.00;;;;;;;;5082171;27;45356;-52
2024/03/17 08:05:25;;;;;;;;;9.67;9.33;;;;;;;;5078682;27;45318;-54
2024/03/17 08:07:50;;;;;;;;;11.00;9.00;;;;;;;;5079669;27;45622;-52
2024/03/17 08:10:17;;;;;;;;;8.33;7.33;;;;;;;;5067897;27;48403;-53
2024/03/17 08:12:42;;;;;;;;;11.00;11.00;;;;;;;;5067927;27;45567;-53
2024/03/17 08:15:08;;;;;;;;;10.67;10.00;;;;;;;;5075196;27;46231;-50
2024/03/17 08:17:33;;;;;;;;;9.33;8.33;;;;;;;;5080890;27;45843;-51
2024/03/17 08:19:58;;;;;;;;;12.33;11.00;;;;;;;;5071237;27;45938;-51
2024/03/17 08:22:24;;;;;;;;;7.67;7.67;;;;;;;;5077964;27;45259;-51
2024/03/17 08:24:49;;;;;;;;;10.00;8.67;;;;;;;;5080486;27;46592;-52
2024/03/17 08:27:14;;;;;;;;;7.33;7.33;;;;;;;;5086412;27;45477;-52
2024/03/17 08:29:40;;;;;;;;;9.67;8.00;;;;;;;;5077685;27;45405;-54
2024/03/17 08:32:05;;;;;;;;;11.00;7.67;;;;;;;;5076621;27;45453;-53
2024/03/17 08:34:30;;;;;;;;;7.00;7.00;;;;;;;;5082187;27;46548;-53
2024/03/17 08:36:56;;;;;;;;;8.67;8.67;;;;;;;;5077917;27;45475;-52
2024/03/17 08:39:22;;;;;;;;;6.33;6.33;;;;;;;;5083208;27;45475;-52
2024/03/17 08:41:47;;;;;;;;;12.67;9.67;;;;;;;;5084281;27;45365;-52
2024/03/17 08:44:13;;;;;;;;;10.33;9.67;;;;;;;;5085257;27;45548;-50
2024/03/17 08:46:38;;;;;;;;;11.00;9.67;;;;;;;;5087782;27;45504;-58
2024/03/17 08:49:04;;;;;;;;;9.33;8.00;;;;;;;;5085504;27;45678;-58
2024/03/17 08:51:30;;;;;;;;;13.67;9.00;;;;;;;;5084158;27;45322;-58
2024/03/17 08:53:57;;;;;;;;;10.33;10.33;;;;;;;;5079987;27;45378;-56
2024/03/17 08:56:23;;;;;;;;;7.33;6.67;;;;;;;;5080324;27;45663;-57
2024/03/17 08:58:48;;;;;;;;;8.33;8.00;;;;;;;;5080152;27;45316;-57
2024/03/17 09:01:14;;;;;;;;;10.00;8.33;;;;;;;;5076787;27;45464;-56
2024/03/17 09:03:39;;;;;;;;;10.33;10.33;;;;;;;;5078564;27;45741;-55
2024/03/17 09:06:14;;;;;;;;;5.00;3.33;;;;;;;;5078212;27;45670;-57
2024/03/17 09:08:39;;;;;;;;;10.00;10.00;;;;;;;;5076472;27;45601;-57
2024/03/17 09:11:09;;;;;;;;;9.33;8.00;;;;;;;;5077768;27;45614;-57
2024/03/17 09:13:35;;;;;;;;;13.33;10.00;;;;;;;;5075647;27;45509;-64
2024/03/17 09:16:00;;;;;;;;;8.00;7.33;;;;;;;;5078724;27;45597;-64
2024/03/17 09:18:27;;;;;;;;;8.67;8.67;;;;;;;;5081527;27;45400;-64
2024/03/17 09:21:18;;;;;;;;;11.33;9.00;;;;;;;;5075560;27;45434;-61
2024/03/17 09:23:43;;;;;;;;;15.33;9.00;;;;;;;;5070287;27;47900;-67
2024/03/17 09:26:10;;;;;;;;;7.67;7.67;;;;;;;;5078495;27;45592;-60
2024/03/17 09:28:36;;;;;;;;;8.33;8.33;;;;;;;;5079101;27;45464;-60
2024/03/17 09:31:01;;;;;;;;;13.33;11.33;;;;;;;;5079283;27;45390;-55
2024/03/17 09:33:27;;;;;;;;;11.67;10.33;;;;;;;;5079118;27;46313;-55
2024/03/17 09:35:56;;;;;;;;;13.00;10.00;;;;;;;;5079117;27;45349;-57
2024/03/17 09:38:21;;;;;;;;;11.67;9.67;;;;;;;;5076930;27;45542;-57
2024/03/17 09:40:47;;;;;;;;;11.33;10.00;;;;;;;;5073469;27;45417;-58
2024/03/17 09:43:12;;;;;;;;;12.00;10.00;;;;;;;;5073359;27;46264;-57
2024/03/17 09:45:38;;;;;;;;;10.33;10.33;;;;;;;;5073071;27;45906;-59
2024/03/17 09:48:03;;;;;;;;;10.00;10.00;;;;;;;;5075364;27;45462;-67
2024/03/17 09:50:29;;;;;;;;;13.00;9.67;;;;;;;;5072109;27;45557;-57
2024/03/17 09:52:54;;;;;;;;;11.33;9.00;;;;;;;;5073276;27;46718;-59
2024/03/17 09:55:19;;;;;;;;;13.00;11.33;;;;;;;;5076022;27;45385;-58
2024/03/17 09:57:45;;;;;;;;;12.00;11.00;;;;;;;;5079356;27;45343;-57
2024/03/17 10:00:12;;;;;;;;;12.00;10.67;;;;;;;;5079042;27;45300;-56
2024/03/17 10:02:41;;;;;;;;;12.00;10.33;;;;;;;;5079805;27;45302;-56
2024/03/17 10:05:17;;;;;;;;;14.67;11.00;;;;;;;;5078850;27;45355;-58
2024/03/17 10:07:42;;;;;;;;;13.00;10.67;;;;;;;;5079777;27;45411;-58
2024/03/17 10:10:14;;;;;;;;;9.00;8.67;;;;;;;;5078044;27;45267;-54
2024/03/17 10:12:39;;;;;;;;;10.33;8.67;;;;;;;;5079594;27;46063;-56
2024/03/17 10:15:04;;;;;;;;;13.67;9.33;;;;;;;;5078816;27;45487;-55
2024/03/17 10:17:32;;;;;;;;;9.00;8.67;;;;;;;;5075787;27;45430;-58
2024/03/17 10:20:11;;;;;;;;;10.67;9.67;;;;;;;;5087245;27;45707;-55
2024/03/17 10:22:36;;;;;;;;;10.00;10.00;;;;;;;;5079509;27;46918;-58
2024/03/17 10:25:01;;;;;;;;;16.67;11.67;;;;;;;;5079802;27;45259;-57
2024/03/17 10:27:27;;;;;;;;;11.00;9.00;;;;;;;;5083211;27;45645;-59
2024/03/17 10:29:52;;;;;;;;;12.67;11.33;;;;;;;;5078457;27;45339;-59
2024/03/17 10:32:19;;;;;;;;;11.67;10.33;;;;;;;;5078455;27;45508;-55
2024/03/17 10:34:44;;;;;;;;;11.33;11.00;;;;;;;;5077845;27;45607;-59
2024/03/17 10:37:13;;;;;;;;;11.00;9.67;;;;;;;;5079239;27;45479;-59
2024/03/17 10:39:40;;;;;;;;;14.00;8.67;;;;;;;;5071779;27;45458;-58
2024/03/17 10:42:06;;;;;;;;;7.67;7.67;;;;;;;;5073277;27;46178;-58
2024/03/17 10:44:32;;;;;;;;;10.67;8.00;;;;;;;;5069108;27;45464;-59
2024/03/17 10:46:58;;;;;;;;;14.00;7.67;;;;;;;;5074280;27;45527;-59
2024/03/17 10:49:27;;;;;;;;;7.33;7.33;;;;;;;;5079505;27;45568;-59
2024/03/17 10:51:54;;;;;;;;;10.67;9.33;;;;;;;;5075958;27;45433;-61
2024/03/17 10:54:25;;;;;;;;;9.33;7.33;;;;;;;;5087662;27;46247;-63
2024/03/17 10:56:51;;;;;;;;;10.00;6.00;;;;;;;;5081615;27;45323;-59
2024/03/17 10:59:18;;;;;;;;;9.33;5.67;;;;;;;;5070078;27;45434;-57
2024/03/17 11:01:43;;;;;;;;;6.67;5.00;;;;;;;;5074633;27;46714;-59
2024/03/17 11:04:12;;;;;;;;;10.00;6.67;;;;;;;;5080372;27;45632;-59
2024/03/17 11:06:37;;;;;;;;;7.00;7.00;;;;;;;;5066959;27;45529;-60
2024/03/17 11:09:03;;;;;;;;;8.33;6.67;;;;;;;;5070993;27;45227;-60
2024/03/17 11:11:35;;;;;;;;;13.00;9.33;;;;;;;;5072407;27;46338;-60
2024/03/17 11:14:22;;;;;;;;;5.33;5.33;;;;;;;;5074703;27;45354;-60
2024/03/17 11:16:47;;;;;;;;;8.00;8.00;;;;;;;;5070215;27;45534;-59
2024/03/17 11:19:15;;;;;;;;;9.33;7.00;;;;;;;;5070759;27;45576;-60
2024/03/17 11:21:40;;;;;;;;;8.67;7.00;;;;;;;;5067074;27;45509;-63
2024/03/17 11:24:05;;;;;;;;;8.00;8.00;;;;;;;;5069418;27;45625;-64
2024/03/17 11:26:37;;;;;;;;;11.67;8.00;;;;;;;;5073804;27;45694;-64
2024/03/17 11:29:06;;;;;;;;;9.00;8.00;;;;;;;;5072646;27;45641;-64
2024/03/17 11:31:32;;;;;;;;;5.00;5.00;;;;;;;;5071958;27;45747;-64
2024/03/17 11:34:00;;;;;;;;;8.67;8.00;;;;;;;;5070764;27;45519;-64
2024/03/17 11:36:28;;;;;;;;;9.67;9.33;;;;;;;;5072170;27;45599;-64
2024/03/17 11:39:25;;;;;;;;;8.67;8.67;;;;;;;;5076094;27;45861;-64
2024/03/17 11:41:48;;;;;;;;;7.33;7.33;;;;;;;;5068308;28;46859;-64
2024/03/17 11:44:23;;;;;;;;;8.33;8.00;;;;;;;;5069196;27;45646;-63
2024/03/17 11:46:51;;;;;;;;;10.00;9.33;;;;;;;;5069915;27;45384;-64
2024/03/17 11:49:20;;;;;;;;;10.00;8.67;;;;;;;;5069439;27;45414;-64
2024/03/17 11:51:46;;;;;;;;;10.67;10.67;;;;;;;;5070261;27;46527;-64
2024/03/17 11:54:31;;;;;;;;;10.00;8.67;;;;;;;;5066633;27;45722;-64
2024/03/17 11:57:07;;;;;;;;;10.00;9.33;;;;;;;;5065653;27;45486;-64
2024/03/17 11:59:33;;;;;;;;;10.00;8.00;;;;;;;;5074408;27;45472;-64
2024/03/17 12:01:58;;;;;;;;;11.00;8.00;;;;;;;;5075533;27;45348;-64
2024/03/17 12:04:24;;;;;;;;;10.67;8.33;;;;;;;;5074878;27;45416;-64
2024/03/17 12:06:52;;;;;;;;;8.67;8.33;;;;;;;;5075202;27;45435;-65
2024/03/17 12:09:21;;;;;;;;;9.00;9.00;;;;;;;;5066787;27;45454;-64
2024/03/17 12:12:07;;;;;;;;;9.00;9.00;;;;;;;;5070935;27;46360;-64
2024/03/17 12:14:32;;;;;;;;;9.33;8.67;;;;;;;;5071586;28;45385;-64
2024/03/17 12:17:01;;;;;;;;;11.00;9.67;;;;;;;;5070720;27;45491;-64
2024/03/17 12:19:27;;;;;;;;;8.00;8.00;;;;;;;;5080388;27;45425;-64
2024/03/17 12:21:53;;;;;;;;;12.33;8.33;;;;;;;;5079280;27;46100;-63
2024/03/17 12:24:28;;;;;;;;;9.33;8.33;;;;;;;;5084630;27;45454;-64
2024/03/17 12:26:59;;;;;;;;;11.67;7.33;;;;;;;;5086962;27;45480;-64
2024/03/17 12:29:29;;;;;;;;;12.33;7.33;;;;;;;;5084342;27;45319;-64
2024/03/17 12:31:55;;;;;;;;;9.33;8.67;;;;;;;;5087447;27;47315;-64
2024/03/17 12:34:21;;;;;;;;;8.67;5.67;;;;;;;;5081152;27;45298;-64
2024/03/17 12:36:46;;;;;;;;;7.67;7.67;;;;;;;;5087970;27;45278;-63
2024/03/17 12:39:18;;;;;;;;;10.33;9.00;;;;;;;;5084433;27;45295;-64
2024/03/17 12:41:43;;;;;;;;;9.00;9.00;;;;;;;;5081747;27;46361;-63
2024/03/17 12:44:20;;;;;;;;;8.67;8.67;;;;;;;;5083491;27;45284;-63
2024/03/17 12:46:46;;;;;;;;;9.67;8.33;;;;;;;;5086695;27;45282;-63
2024/03/17 12:49:11;;;;;;;;;11.33;9.33;;;;;;;;5083543;27;45613;-63
2024/03/17 12:51:40;;;;;;;;;2.33;2.33;;;;;;;;5086492;27;45637;-64
2024/03/17 12:54:14;;;;;;;;;7.00;6.00;;;;;;;;5083554;27;45420;-63
2024/03/17 13:02:10;;;;;;;;;8.33;5.00;;;;;;;;5076186;27;45438;-64
2024/03/17 13:04:37;;;;;;;;;5.00;4.33;;;;;;;;5073707;27;45295;-65
2024/03/17 13:07:09;;;;;;;;;9.00;6.67;;;;;;;;5073182;27;45602;-64
2024/03/17 13:09:34;;;;;;;;;8.67;8.00;;;;;;;;5082189;27;45357;-65
2024/03/17 13:12:00;;;;;;;;;11.00;7.33;;;;;;;;5082257;27;47735;-64
2024/03/17 13:14:25;;;;;;;;;7.00;5.67;;;;;;;;5080424;27;45534;-65
2024/03/17 13:16:50;;;;;;;;;9.33;6.33;;;;;;;;5077466;27;45548;-64
2024/03/17 13:19:15;;;;;;;;;8.00;3.67;;;;;;;;5077816;27;45413;-63
2024/03/17 13:21:40;;;;;;;;;7.00;7.00;;;;;;;;5078356;27;46334;-62
2024/03/17 13:24:06;;;;;;;;;9.67;6.33;;;;;;;;5081224;27;45448;-63
2024/03/17 13:26:31;;;;;;;;;5.33;5.00;;;;;;;;5081179;28;45875;-62
2024/03/17 13:28:56;;;;;;;;;11.67;8.67;;;;;;;;5083050;27;45308;-64
2024/03/17 13:31:21;;;;;;;;;6.00;5.67;;;;;;;;5080548;27;46085;-63
2024/03/17 13:33:47;;;;;;;;;8.67;7.33;;;;;;;;5082879;27;45428;-64
2024/03/17 13:36:12;;;;;;;;;12.00;7.33;;;;;;;;5078639;28;45448;-64
2024/03/17 13:38:39;;;;;;;;;9.67;7.00;;;;;;;;5081877;27;45267;-64
2024/03/17 13:41:04;;;;;;;;;7.00;7.00;;;;;;;;5075320;27;46132;-63
2024/03/17 13:43:30;;;;;;;;;8.33;7.67;;;;;;;;5077987;27;45359;-65
2024/03/17 13:45:55;;;;;;;;;9.33;9.33;;;;;;;;5079590;27;45421;-64
2024/03/17 13:48:20;;;;;;;;;6.33;5.67;;;;;;;;5084368;27;45328;-64
2024/03/17 13:50:47;;;;;;;;;7.00;7.00;;;;;;;;5083106;27;45593;-64
2024/03/17 13:53:12;;;;;;;;;7.67;7.67;;;;;;;;5082264;27;45244;-64
2024/03/17 13:55:38;;;;;;;;;11.67;7.67;;;;;;;;5082194;27;45412;-64
2024/03/17 13:58:04;;;;;;;;;8.33;8.33;;;;;;;;5084318;27;45346;-64
2024/03/17 14:00:31;;;;;;;;;7.00;6.67;;;;;;;;5079203;27;45505;-64
2024/03/17 14:02:56;;;;;;;;;6.33;6.33;;;;;;;;5079068;27;45343;-64
2024/03/17 14:05:22;;;;;;;;;7.33;6.00;;;;;;;;5078725;27;45793;-64
2024/03/17 14:07:47;;;;;;;;;6.67;6.67;;;;;;;;5080241;27;45308;-64
2024/03/17 14:10:14;;;;;;;;;7.67;7.67;;;;;;;;5082818;27;45994;-64
2024/03/17 14:12:39;;;;;;;;;7.00;7.00;;;;;;;;5085573;27;45358;-64
2024/03/17 14:15:05;;;;;;;;;8.00;6.00;;;;;;;;5079828;27;45513;-64
2024/03/17 14:17:31;;;;;;;;;8.00;7.00;;;;;;;;5077498;27;45364;-64
2024/03/17 14:19:56;;;;;;;;;6.67;6.67;;;;;;;;5083002;27;46083;-64
2024/03/17 14:22:21;;;;;;;;;6.00;6.00;;;;;;;;5084334;27;45407;-64
2024/03/17 14:24:46;;;;;;;;;6.33;5.67;;;;;;;;5083868;27;45584;-64
2024/03/17 14:27:13;;;;;;;;;5.33;5.00;;;;;;;;5094921;27;45444;-64
2024/03/17 14:29:38;;;;;;;;;4.00;4.00;;;;;;;;5084457;27;45414;-65
2024/03/17 14:32:03;;;;;;;;;4.00;4.00;;;;;;;;5094408;27;45341;-64
2024/03/17 14:34:34;;;;;;;;;5.00;4.33;;;;;;;;5094494;27;45149;-64
2024/03/17 14:36:59;;;;;;;;;5.00;4.00;;;;;;;;5095478;27;45295;-64